sensor_id;sensor_type;location;lat;lon;timestamp;temperature;humidity
49218;DHT22;35045;51.194;7.268;2023-11-18T00:01:17;3.90;99.90
49218;DHT22;35045;51.194;7.268;2023-11-18T00:03:43;3.90;99.90
49218;DHT22;35045;51.194;7.268;2023-11-18T00:06:09;3.90;99.90
49218;DHT22;35045;51.194;7.268;2023-11-18T00:08:36;3.90;99.90
49218;DHT22;35045;51.194;7.268;2023-11-18T00:11:02;4.00;99.90
49218;DHT22;35045;51.194;7.268;2023-11-18T00:13:29;4.00;99.90
49218;DHT22;35045;51.194;7.268;2023-11-18T00:15:55;3.90;99.90
49218;DHT22;35045;51.194;7.268;2023-11-18T00:18:21;3.80;99.90
49218;DHT22;35045;51.194;7.268;2023-11-18T00:20:48;3.80;99.90
49218;DHT22;35045;51.194;7.268;2023-11-18T00:23:17;3.80;99.90
49218;DHT22;35045;51.194;7.268;2023-11-18T00:25:45;3.70;99.90
49218;DHT22;35045;51.194;7.268;2023-11-18T00:28:11;3.70;99.90
49218;DHT22;35045;51.194;7.268;2023-11-18T00:30:37;3.70;99.90
49218;DHT22;35045;51.194;7.268;2023-11-18T00:33:04;3.70;99.90
49218;DHT22;35045;51.194;7.268;2023-11-18T00:35:30;3.70;99.90
49218;DHT22;35045;51.194;7.268;2023-11-18T00:38:00;3.80;99.90
49218;DHT22;35045;51.194;7.268;2023-11-18T00:40:26;3.80;99.90
49218;DHT22;35045;51.194;7.268;2023-11-18T00:42:58;3.80;99.90
49218;DHT22;35045;51.194;7.268;2023-11-18T00:45:25;3.80;99.90
49218;DHT22;35045;51.194;7.268;2023-11-18T00:47:51;3.80;99.90
49218;DHT22;35045;51.194;7.268;2023-11-18T00:50:17;3.80;99.90
49218;DHT22;35045;51.194;7.268;2023-11-18T00:52:43;3.80;99.90
49218;DHT22;35045;51.194;7.268;2023-11-18T00:55:10;3.70;99.90
49218;DHT22;35045;51.194;7.268;2023-11-18T00:57:39;3.80;99.90
49218;DHT22;35045;51.194;7.268;2023-11-18T01:00:07;3.80;99.90
49218;DHT22;35045;51.194;7.268;2023-11-18T01:02:34;3.80;99.90
49218;DHT22;35045;51.194;7.268;2023-11-18T01:05:01;3.70;99.90
49218;DHT22;35045;51.194;7.268;2023-11-18T01:07:27;3.60;99.90
49218;DHT22;35045;51.194;7.268;2023-11-18T01:09:53;3.60;99.90
49218;DHT22;35045;51.194;7.268;2023-11-18T01:12:19;3.60;99.90
49218;DHT22;35045;51.194;7.268;2023-11-18T01:14:46;3.60;99.90
49218;DHT22;35045;51.194;7.268;2023-11-18T01:17:12;3.50;99.90
49218;DHT22;35045;51.194;7.268;2023-11-18T01:19:39;3.50;99.90
49218;DHT22;35045;51.194;7.268;2023-11-18T01:22:07;3.50;99.90
49218;DHT22;35045;51.194;7.268;2023-11-18T01:24:34;3.50;99.90
49218;DHT22;35045;51.194;7.268;2023-11-18T01:27:01;3.50;99.90
49218;DHT22;35045;51.194;7.268;2023-11-18T01:29:27;3.50;99.90
49218;DHT22;35045;51.194;7.268;2023-11-18T01:31:53;3.40;99.90
49218;DHT22;35045;51.194;7.268;2023-11-18T01:34:22;3.40;99.90
49218;DHT22;35045;51.194;7.268;2023-11-18T01:36:49;3.40;99.90
49218;DHT22;35045;51.194;7.268;2023-11-18T01:39:16;3.50;99.90
49218;DHT22;35045;51.194;7.268;2023-11-18T01:41:46;3.50;99.90
49218;DHT22;35045;51.194;7.268;2023-11-18T01:44:12;3.50;99.90
49218;DHT22;35045;51.194;7.268;2023-11-18T01:46:42;3.50;99.90
49218;DHT22;35045;51.194;7.268;2023-11-18T01:49:13;3.50;99.90
49218;DHT22;35045;51.194;7.268;2023-11-18T01:51:41;3.50;99.90
49218;DHT22;35045;51.194;7.268;2023-11-18T01:54:09;3.50;99.90
49218;DHT22;35045;51.194;7.268;2023-11-18T01:56:46;3.50;99.90
49218;DHT22;35045;51.194;7.268;2023-11-18T01:59:13;3.50;99.90
49218;DHT22;35045;51.194;7.268;2023-11-18T02:01:52;3.60;99.90
49218;DHT22;35045;51.194;7.268;2023-11-18T02:04:26;3.50;99.90
49218;DHT22;35045;51.194;7.268;2023-11-18T02:06:52;3.50;99.90
49218;DHT22;35045;51.194;7.268;2023-11-18T02:09:20;3.50;99.90
49218;DHT22;35045;51.194;7.268;2023-11-18T02:14:31;3.40;99.90
49218;DHT22;35045;51.194;7.268;2023-11-18T02:17:02;3.40;99.90
49218;DHT22;35045;51.194;7.268;2023-11-18T02:19:29;3.40;99.90
49218;DHT22;35045;51.194;7.268;2023-11-18T02:21:57;3.40;99.90
49218;DHT22;35045;51.194;7.268;2023-11-18T02:24:33;3.40;99.90
49218;DHT22;35045;51.194;7.268;2023-11-18T02:27:04;3.50;99.90
49218;DHT22;35045;51.194;7.268;2023-11-18T02:29:39;3.40;99.90
49218;DHT22;35045;51.194;7.268;2023-11-18T02:32:32;3.50;99.90
49218;DHT22;35045;51.194;7.268;2023-11-18T02:35:17;3.40;99.90
49218;DHT22;35045;51.194;7.268;2023-11-18T02:37:47;3.40;99.90
49218;DHT22;35045;51.194;7.268;2023-11-18T02:40:19;3.40;99.90
49218;DHT22;35045;51.194;7.268;2023-11-18T02:42:48;3.40;99.90
49218;DHT22;35045;51.194;7.268;2023-11-18T02:45:16;3.40;99.90
49218;DHT22;35045;51.194;7.268;2023-11-18T02:47:46;3.40;99.90
49218;DHT22;35045;51.194;7.268;2023-11-18T02:50:12;3.40;99.90
49218;DHT22;35045;51.194;7.268;2023-11-18T02:52:40;3.40;99.90
49218;DHT22;35045;51.194;7.268;2023-11-18T02:55:08;3.40;99.90
49218;DHT22;35045;51.194;7.268;2023-11-18T02:57:35;3.50;99.90
49218;DHT22;35045;51.194;7.268;2023-11-18T03:00:03;3.50;99.90
49218;DHT22;35045;51.194;7.268;2023-11-18T03:02:30;3.50;99.90
49218;DHT22;35045;51.194;7.268;2023-11-18T03:04:57;3.50;99.90
49218;DHT22;35045;51.194;7.268;2023-11-18T03:07:24;3.50;99.90
49218;DHT22;35045;51.194;7.268;2023-11-18T03:09:50;3.60;99.90
49218;DHT22;35045;51.194;7.268;2023-11-18T03:12:16;3.60;99.90
49218;DHT22;35045;51.194;7.268;2023-11-18T03:14:42;3.60;99.90
49218;DHT22;35045;51.194;7.268;2023-11-18T03:17:09;3.60;99.90
49218;DHT22;35045;51.194;7.268;2023-11-18T03:19:36;3.60;99.90
49218;DHT22;35045;51.194;7.268;2023-11-18T03:22:03;3.70;99.90
49218;DHT22;35045;51.194;7.268;2023-11-18T03:24:29;3.70;99.90
49218;DHT22;35045;51.194;7.268;2023-11-18T03:26:55;3.60;99.90
49218;DHT22;35045;51.194;7.268;2023-11-18T03:29:22;3.60;99.90
49218;DHT22;35045;51.194;7.268;2023-11-18T03:31:49;3.70;99.90
49218;DHT22;35045;51.194;7.268;2023-11-18T03:34:16;3.70;99.90
49218;DHT22;35045;51.194;7.268;2023-11-18T03:36:45;3.80;99.90
49218;DHT22;35045;51.194;7.268;2023-11-18T03:39:13;3.80;99.90
49218;DHT22;35045;51.194;7.268;2023-11-18T03:41:42;3.80;99.90
49218;DHT22;35045;51.194;7.268;2023-11-18T03:44:12;3.70;99.90
49218;DHT22;35045;51.194;7.268;2023-11-18T03:46:38;3.80;99.90
49218;DHT22;35045;51.194;7.268;2023-11-18T03:49:04;3.80;99.90
49218;DHT22;35045;51.194;7.268;2023-11-18T03:51:30;3.80;99.90
49218;DHT22;35045;51.194;7.268;2023-11-18T03:53:57;3.80;99.90
49218;DHT22;35045;51.194;7.268;2023-11-18T03:56:23;3.80;99.90
49218;DHT22;35045;51.194;7.268;2023-11-18T03:58:49;3.90;99.90
49218;DHT22;35045;51.194;7.268;2023-11-18T04:01:21;3.90;99.90
49218;DHT22;35045;51.194;7.268;2023-11-18T04:03:48;3.90;99.90
49218;DHT22;35045;51.194;7.268;2023-11-18T04:06:14;3.90;99.90
49218;DHT22;35045;51.194;7.268;2023-11-18T04:08:45;4.00;99.90
49218;DHT22;35045;51.194;7.268;2023-11-18T04:11:13;3.90;99.90
49218;DHT22;35045;51.194;7.268;2023-11-18T04:13:44;3.90;99.90
49218;DHT22;35045;51.194;7.268;2023-11-18T04:16:14;3.90;99.90
49218;DHT22;35045;51.194;7.268;2023-11-18T04:18:45;4.00;99.90
49218;DHT22;35045;51.194;7.268;2023-11-18T04:21:12;4.00;99.90
49218;DHT22;35045;51.194;7.268;2023-11-18T04:23:42;3.90;99.90
49218;DHT22;35045;51.194;7.268;2023-11-18T04:26:08;3.90;99.90
49218;DHT22;35045;51.194;7.268;2023-11-18T04:28:35;3.90;99.90
49218;DHT22;35045;51.194;7.268;2023-11-18T04:31:02;3.90;99.90
49218;DHT22;35045;51.194;7.268;2023-11-18T04:33:29;3.90;99.90
49218;DHT22;35045;51.194;7.268;2023-11-18T04:35:55;3.90;99.90
49218;DHT22;35045;51.194;7.268;2023-11-18T04:38:25;3.90;99.90
49218;DHT22;35045;51.194;7.268;2023-11-18T04:40:52;3.90;99.90
49218;DHT22;35045;51.194;7.268;2023-11-18T04:43:20;3.80;99.90
49218;DHT22;35045;51.194;7.268;2023-11-18T04:45:50;3.80;99.90
49218;DHT22;35045;51.194;7.268;2023-11-18T04:48:16;3.90;99.90
49218;DHT22;35045;51.194;7.268;2023-11-18T04:50:43;3.90;99.90
49218;DHT22;35045;51.194;7.268;2023-11-18T04:53:09;4.00;99.90
49218;DHT22;35045;51.194;7.268;2023-11-18T04:55:37;4.00;99.90
49218;DHT22;35045;51.194;7.268;2023-11-18T04:58:04;4.00;99.90
49218;DHT22;35045;51.194;7.268;2023-11-18T05:00:37;4.00;99.90
49218;DHT22;35045;51.194;7.268;2023-11-18T05:03:07;3.90;99.90
49218;DHT22;35045;51.194;7.268;2023-11-18T05:05:37;3.90;99.90
49218;DHT22;35045;51.194;7.268;2023-11-18T05:08:05;4.00;99.90
49218;DHT22;35045;51.194;7.268;2023-11-18T05:10:35;4.00;99.90
49218;DHT22;35045;51.194;7.268;2023-11-18T05:13:03;4.10;99.90
49218;DHT22;35045;51.194;7.268;2023-11-18T05:15:29;4.10;99.90
49218;DHT22;35045;51.194;7.268;2023-11-18T05:17:57;4.00;99.90
49218;DHT22;35045;51.194;7.268;2023-11-18T05:20:24;4.00;99.90
49218;DHT22;35045;51.194;7.268;2023-11-18T05:22:50;4.10;99.90
49218;DHT22;35045;51.194;7.268;2023-11-18T05:25:16;4.10;99.90
49218;DHT22;35045;51.194;7.268;2023-11-18T05:27:43;4.00;99.90
49218;DHT22;35045;51.194;7.268;2023-11-18T05:30:11;4.00;99.90
49218;DHT22;35045;51.194;7.268;2023-11-18T05:32:37;4.00;99.90
49218;DHT22;35045;51.194;7.268;2023-11-18T05:35:04;4.10;99.90
49218;DHT22;35045;51.194;7.268;2023-11-18T05:37:31;4.10;99.90
49218;DHT22;35045;51.194;7.268;2023-11-18T05:40:02;4.10;99.90
49218;DHT22;35045;51.194;7.268;2023-11-18T05:42:33;4.10;99.90
49218;DHT22;35045;51.194;7.268;2023-11-18T05:45:05;4.00;99.90
49218;DHT22;35045;51.194;7.268;2023-11-18T05:47:33;4.00;99.90
49218;DHT22;35045;51.194;7.268;2023-11-18T05:50:01;4.00;99.90
49218;DHT22;35045;51.194;7.268;2023-11-18T05:52:27;4.00;99.90
49218;DHT22;35045;51.194;7.268;2023-11-18T05:54:53;4.10;99.90
49218;DHT22;35045;51.194;7.268;2023-11-18T05:57:19;4.20;99.90
49218;DHT22;35045;51.194;7.268;2023-11-18T05:59:46;4.20;99.90
49218;DHT22;35045;51.194;7.268;2023-11-18T06:02:15;4.20;99.90
49218;DHT22;35045;51.194;7.268;2023-11-18T06:04:45;4.20;99.90
49218;DHT22;35045;51.194;7.268;2023-11-18T06:07:11;4.20;99.90
49218;DHT22;35045;51.194;7.268;2023-11-18T06:09:40;4.20;99.90
49218;DHT22;35045;51.194;7.268;2023-11-18T06:12:08;4.20;99.90
49218;DHT22;35045;51.194;7.268;2023-11-18T06:14:38;4.30;99.90
49218;DHT22;35045;51.194;7.268;2023-11-18T06:17:05;4.30;99.90
49218;DHT22;35045;51.194;7.268;2023-11-18T06:19:34;4.30;99.90
49218;DHT22;35045;51.194;7.268;2023-11-18T06:22:00;4.40;99.90
49218;DHT22;35045;51.194;7.268;2023-11-18T06:24:26;4.40;99.90
49218;DHT22;35045;51.194;7.268;2023-11-18T06:26:54;4.40;99.90
49218;DHT22;35045;51.194;7.268;2023-11-18T06:29:20;4.40;99.90
49218;DHT22;35045;51.194;7.268;2023-11-18T06:31:47;4.50;99.90
49218;DHT22;35045;51.194;7.268;2023-11-18T06:34:14;4.50;99.90
49218;DHT22;35045;51.194;7.268;2023-11-18T06:36:40;4.50;99.90
49218;DHT22;35045;51.194;7.268;2023-11-18T06:39:06;4.50;99.90
49218;DHT22;35045;51.194;7.268;2023-11-18T06:41:34;4.50;99.90
49218;DHT22;35045;51.194;7.268;2023-11-18T06:44:01;4.50;99.90
49218;DHT22;35045;51.194;7.268;2023-11-18T06:46:35;4.40;99.90
49218;DHT22;35045;51.194;7.268;2023-11-18T06:49:03;4.50;99.90
49218;DHT22;35045;51.194;7.268;2023-11-18T06:51:33;4.50;99.90
49218;DHT22;35045;51.194;7.268;2023-11-18T06:54:05;4.50;99.90
49218;DHT22;35045;51.194;7.268;2023-11-18T06:56:42;4.50;99.90
49218;DHT22;35045;51.194;7.268;2023-11-18T06:59:13;4.50;99.90
49218;DHT22;35045;51.194;7.268;2023-11-18T07:01:40;4.60;99.90
49218;DHT22;35045;51.194;7.268;2023-11-18T07:04:08;4.60;99.90
49218;DHT22;35045;51.194;7.268;2023-11-18T07:06:35;4.60;99.90
49218;DHT22;35045;51.194;7.268;2023-11-18T07:09:05;4.60;99.90
49218;DHT22;35045;51.194;7.268;2023-11-18T07:11:41;4.60;99.90
49218;DHT22;35045;51.194;7.268;2023-11-18T07:14:08;4.60;99.90
49218;DHT22;35045;51.194;7.268;2023-11-18T07:16:35;4.70;99.90
49218;DHT22;35045;51.194;7.268;2023-11-18T07:19:01;4.70;99.90
49218;DHT22;35045;51.194;7.268;2023-11-18T07:21:29;4.80;99.90
49218;DHT22;35045;51.194;7.268;2023-11-18T07:23:56;4.80;99.90
49218;DHT22;35045;51.194;7.268;2023-11-18T07:26:22;4.80;99.90
49218;DHT22;35045;51.194;7.268;2023-11-18T07:28:50;4.80;99.90
49218;DHT22;35045;51.194;7.268;2023-11-18T07:31:18;4.80;99.90
49218;DHT22;35045;51.194;7.268;2023-11-18T07:33:45;4.80;99.90
49218;DHT22;35045;51.194;7.268;2023-11-18T07:36:16;4.90;99.90
49218;DHT22;35045;51.194;7.268;2023-11-18T07:38:42;4.90;99.90
49218;DHT22;35045;51.194;7.268;2023-11-18T07:41:09;5.00;99.90
49218;DHT22;35045;51.194;7.268;2023-11-18T07:43:36;4.90;99.90
49218;DHT22;35045;51.194;7.268;2023-11-18T07:46:07;4.90;99.90
49218;DHT22;35045;51.194;7.268;2023-11-18T07:48:33;4.90;99.90
49218;DHT22;35045;51.194;7.268;2023-11-18T07:51:01;4.90;99.90
49218;DHT22;35045;51.194;7.268;2023-11-18T07:53:28;4.90;99.90
49218;DHT22;35045;51.194;7.268;2023-11-18T07:55:55;5.00;99.90
49218;DHT22;35045;51.194;7.268;2023-11-18T07:58:22;4.90;99.90
49218;DHT22;35045;51.194;7.268;2023-11-18T08:00:49;4.90;99.90
49218;DHT22;35045;51.194;7.268;2023-11-18T08:03:16;4.90;99.90
49218;DHT22;35045;51.194;7.268;2023-11-18T08:05:43;4.90;99.90
49218;DHT22;35045;51.194;7.268;2023-11-18T08:08:11;4.80;99.90
49218;DHT22;35045;51.194;7.268;2023-11-18T08:10:38;4.80;99.90
49218;DHT22;35045;51.194;7.268;2023-11-18T08:13:05;4.80;99.90
49218;DHT22;35045;51.194;7.268;2023-11-18T08:15:43;4.80;99.90
49218;DHT22;35045;51.194;7.268;2023-11-18T08:18:12;4.80;99.90
49218;DHT22;35045;51.194;7.268;2023-11-18T08:20:39;4.90;99.90
49218;DHT22;35045;51.194;7.268;2023-11-18T08:23:05;4.90;99.90
49218;DHT22;35045;51.194;7.268;2023-11-18T08:25:32;5.00;99.90
49218;DHT22;35045;51.194;7.268;2023-11-18T08:28:07;5.00;99.90
49218;DHT22;35045;51.194;7.268;2023-11-18T08:30:34;5.00;99.90
49218;DHT22;35045;51.194;7.268;2023-11-18T08:33:00;5.00;99.90
49218;DHT22;35045;51.194;7.268;2023-11-18T08:35:28;5.10;99.90
49218;DHT22;35045;51.194;7.268;2023-11-18T08:37:55;5.10;99.90
49218;DHT22;35045;51.194;7.268;2023-11-18T08:40:21;5.20;99.90
49218;DHT22;35045;51.194;7.268;2023-11-18T08:42:49;5.20;99.90
49218;DHT22;35045;51.194;7.268;2023-11-18T08:45:23;5.20;99.90
49218;DHT22;35045;51.194;7.268;2023-11-18T08:47:56;5.30;99.90
49218;DHT22;35045;51.194;7.268;2023-11-18T08:50:23;5.30;99.90
49218;DHT22;35045;51.194;7.268;2023-11-18T08:52:53;5.30;99.90
49218;DHT22;35045;51.194;7.268;2023-11-18T08:55:24;5.30;99.90
49218;DHT22;35045;51.194;7.268;2023-11-18T08:58:09;5.30;99.90
49218;DHT22;35045;51.194;7.268;2023-11-18T09:00:57;5.40;99.90
49218;DHT22;35045;51.194;7.268;2023-11-18T09:03:41;5.40;99.90
49218;DHT22;35045;51.194;7.268;2023-11-18T09:06:15;5.50;99.90
49218;DHT22;35045;51.194;7.268;2023-11-18T09:08:45;5.60;99.90
49218;DHT22;35045;51.194;7.268;2023-11-18T09:11:13;5.50;99.90
49218;DHT22;35045;51.194;7.268;2023-11-18T09:13:46;5.40;99.90
49218;DHT22;35045;51.194;7.268;2023-11-18T09:16:15;5.40;99.90
49218;DHT22;35045;51.194;7.268;2023-11-18T09:18:43;5.40;99.90
49218;DHT22;35045;51.194;7.268;2023-11-18T09:21:11;5.50;99.90
49218;DHT22;35045;51.194;7.268;2023-11-18T09:23:42;5.50;99.90
49218;DHT22;35045;51.194;7.268;2023-11-18T09:26:08;5.60;99.90
49218;DHT22;35045;51.194;7.268;2023-11-18T09:28:37;5.60;99.90
49218;DHT22;35045;51.194;7.268;2023-11-18T09:31:04;5.50;99.90
49218;DHT22;35045;51.194;7.268;2023-11-18T09:33:32;5.60;99.90
49218;DHT22;35045;51.194;7.268;2023-11-18T09:36:05;5.60;99.90
49218;DHT22;35045;51.194;7.268;2023-11-18T09:38:35;5.60;99.90
49218;DHT22;35045;51.194;7.268;2023-11-18T09:41:03;5.60;99.90
49218;DHT22;35045;51.194;7.268;2023-11-18T09:43:33;5.70;99.90
49218;DHT22;35045;51.194;7.268;2023-11-18T09:46:09;5.60;99.90
49218;DHT22;35045;51.194;7.268;2023-11-18T09:48:47;5.70;99.90
49218;DHT22;35045;51.194;7.268;2023-11-18T09:51:24;5.80;99.90
49218;DHT22;35045;51.194;7.268;2023-11-18T09:53:54;5.80;99.90
49218;DHT22;35045;51.194;7.268;2023-11-18T09:56:23;5.80;99.90
49218;DHT22;35045;51.194;7.268;2023-11-18T10:01:51;5.80;99.90
49218;DHT22;35045;51.194;7.268;2023-11-18T10:04:24;5.90;99.90
49218;DHT22;35045;51.194;7.268;2023-11-18T10:06:54;5.90;99.90
49218;DHT22;35045;51.194;7.268;2023-11-18T10:09:28;5.90;99.90
49218;DHT22;35045;51.194;7.268;2023-11-18T10:11:55;5.90;99.90
49218;DHT22;35045;51.194;7.268;2023-11-18T10:14:35;6.00;99.90
49218;DHT22;35045;51.194;7.268;2023-11-18T10:17:08;6.00;99.90
49218;DHT22;35045;51.194;7.268;2023-11-18T10:19:53;6.00;99.90
49218;DHT22;35045;51.194;7.268;2023-11-18T10:22:23;6.00;99.90
49218;DHT22;35045;51.194;7.268;2023-11-18T10:24:50;6.10;99.90
49218;DHT22;35045;51.194;7.268;2023-11-18T10:27:24;6.10;99.90
49218;DHT22;35045;51.194;7.268;2023-11-18T10:30:02;6.10;99.90
49218;DHT22;35045;51.194;7.268;2023-11-18T10:32:29;6.20;99.90
49218;DHT22;35045;51.194;7.268;2023-11-18T10:34:56;6.20;99.90
49218;DHT22;35045;51.194;7.268;2023-11-18T10:37:23;6.30;99.90
49218;DHT22;35045;51.194;7.268;2023-11-18T10:39:49;6.30;99.90
49218;DHT22;35045;51.194;7.268;2023-11-18T10:42:18;6.30;99.90
49218;DHT22;35045;51.194;7.268;2023-11-18T10:44:54;6.40;99.90
49218;DHT22;35045;51.194;7.268;2023-11-18T10:47:26;6.40;99.90
49218;DHT22;35045;51.194;7.268;2023-11-18T10:49:55;6.40;99.90
49218;DHT22;35045;51.194;7.268;2023-11-18T10:52:25;6.40;99.90
49218;DHT22;35045;51.194;7.268;2023-11-18T10:54:52;6.50;99.90
49218;DHT22;35045;51.194;7.268;2023-11-18T10:57:20;6.60;99.90
49218;DHT22;35045;51.194;7.268;2023-11-18T11:00:04;6.60;99.90
49218;DHT22;35045;51.194;7.268;2023-11-18T11:02:42;6.70;99.90
49218;DHT22;35045;51.194;7.268;2023-11-18T11:05:08;6.70;99.90
49218;DHT22;35045;51.194;7.268;2023-11-18T11:07:43;6.70;99.90
49218;DHT22;35045;51.194;7.268;2023-11-18T11:10:10;6.80;99.90
49218;DHT22;35045;51.194;7.268;2023-11-18T11:12:43;6.80;99.90
49218;DHT22;35045;51.194;7.268;2023-11-18T11:15:22;6.70;99.90
49218;DHT22;35045;51.194;7.268;2023-11-18T11:17:52;6.70;99.90
49218;DHT22;35045;51.194;7.268;2023-11-18T11:20:22;6.70;99.90
49218;DHT22;35045;51.194;7.268;2023-11-18T11:26:27;6.70;99.90
49218;DHT22;35045;51.194;7.268;2023-11-18T11:29:07;6.70;99.90
49218;DHT22;35045;51.194;7.268;2023-11-18T11:31:39;6.70;99.90
49218;DHT22;35045;51.194;7.268;2023-11-18T11:34:12;6.70;99.90
49218;DHT22;35045;51.194;7.268;2023-11-18T11:36:46;6.80;99.90
49218;DHT22;35045;51.194;7.268;2023-11-18T11:39:15;6.80;99.90
49218;DHT22;35045;51.194;7.268;2023-11-18T11:41:50;6.70;99.90
49218;DHT22;35045;51.194;7.268;2023-11-18T11:44:17;6.70;99.90
49218;DHT22;35045;51.194;7.268;2023-11-18T11:46:47;6.70;99.90
49218;DHT22;35045;51.194;7.268;2023-11-18T11:49:20;6.70;99.90
49218;DHT22;35045;51.194;7.268;2023-11-18T11:51:56;6.70;99.90
49218;DHT22;35045;51.194;7.268;2023-11-18T11:54:29;6.60;99.90
49218;DHT22;35045;51.194;7.268;2023-11-18T11:57:00;6.60;99.90
49218;DHT22;35045;51.194;7.268;2023-11-18T12:02:11;6.70;99.90
49218;DHT22;35045;51.194;7.268;2023-11-18T12:04:45;6.70;99.90
49218;DHT22;35045;51.194;7.268;2023-11-18T12:07:12;6.70;99.90
49218;DHT22;35045;51.194;7.268;2023-11-18T12:09:46;6.70;99.90
49218;DHT22;35045;51.194;7.268;2023-11-18T12:12:23;6.70;99.90
49218;DHT22;35045;51.194;7.268;2023-11-18T12:14:54;6.70;99.90
49218;DHT22;35045;51.194;7.268;2023-11-18T12:17:24;6.70;99.90
49218;DHT22;35045;51.194;7.268;2023-11-18T12:19:54;6.60;99.90
49218;DHT22;35045;51.194;7.268;2023-11-18T12:23:04;6.70;99.90
49218;DHT22;35045;51.194;7.268;2023-11-18T12:25:43;6.70;99.90
49218;DHT22;35045;51.194;7.268;2023-11-18T12:28:14;6.70;99.90
49218;DHT22;35045;51.194;7.268;2023-11-18T12:30:43;6.80;99.90
49218;DHT22;35045;51.194;7.268;2023-11-18T12:33:19;6.80;99.90
49218;DHT22;35045;51.194;7.268;2023-11-18T12:41:37;6.70;99.90
49218;DHT22;35045;51.194;7.268;2023-11-18T12:46:52;6.70;99.90
49218;DHT22;35045;51.194;7.268;2023-11-18T12:49:21;6.70;99.90
49218;DHT22;35045;51.194;7.268;2023-11-18T12:51:54;6.70;99.90
49218;DHT22;35045;51.194;7.268;2023-11-18T12:54:23;6.60;99.90
49218;DHT22;35045;51.194;7.268;2023-11-18T12:56:55;6.60;99.90
49218;DHT22;35045;51.194;7.268;2023-11-18T12:59:21;6.60;99.90
49218;DHT22;35045;51.194;7.268;2023-11-18T13:01:52;6.60;99.90
49218;DHT22;35045;51.194;7.268;2023-11-18T13:04:25;6.60;99.90
49218;DHT22;35045;51.194;7.268;2023-11-18T13:06:53;6.70;99.90
49218;DHT22;35045;51.194;7.268;2023-11-18T13:09:22;6.60;99.90
49218;DHT22;35045;51.194;7.268;2023-11-18T13:11:56;6.60;99.90
49218;DHT22;35045;51.194;7.268;2023-11-18T13:14:24;6.50;99.90
49218;DHT22;35045;51.194;7.268;2023-11-18T13:16:52;6.60;99.90
49218;DHT22;35045;51.194;7.268;2023-11-18T13:19:24;6.50;99.90
49218;DHT22;35045;51.194;7.268;2023-11-18T13:21:50;6.60;99.90
49218;DHT22;35045;51.194;7.268;2023-11-18T13:24:17;6.60;99.90
49218;DHT22;35045;51.194;7.268;2023-11-18T13:26:43;6.60;99.90
49218;DHT22;35045;51.194;7.268;2023-11-18T13:29:09;6.60;99.90
49218;DHT22;35045;51.194;7.268;2023-11-18T13:31:36;6.60;99.90
49218;DHT22;35045;51.194;7.268;2023-11-18T13:34:02;6.50;99.90
49218;DHT22;35045;51.194;7.268;2023-11-18T13:36:31;6.50;99.90
49218;DHT22;35045;51.194;7.268;2023-11-18T13:38:57;6.60;99.90
49218;DHT22;35045;51.194;7.268;2023-11-18T13:41:30;6.60;99.90
49218;DHT22;35045;51.194;7.268;2023-11-18T13:43:58;6.50;99.90
49218;DHT22;35045;51.194;7.268;2023-11-18T13:46:24;6.50;99.90
49218;DHT22;35045;51.194;7.268;2023-11-18T13:48:52;6.60;99.90
49218;DHT22;35045;51.194;7.268;2023-11-18T13:51:19;6.60;99.90
49218;DHT22;35045;51.194;7.268;2023-11-18T13:53:47;6.60;99.90
49218;DHT22;35045;51.194;7.268;2023-11-18T13:56:13;6.60;99.90
49218;DHT22;35045;51.194;7.268;2023-11-18T13:58:44;6.60;99.90
49218;DHT22;35045;51.194;7.268;2023-11-18T14:01:11;6.60;99.90
49218;DHT22;35045;51.194;7.268;2023-11-18T14:03:40;6.60;99.90
49218;DHT22;35045;51.194;7.268;2023-11-18T14:06:07;6.60;99.90
49218;DHT22;35045;51.194;7.268;2023-11-18T14:08:39;6.60;99.90
49218;DHT22;35045;51.194;7.268;2023-11-18T14:11:08;6.60;99.90
49218;DHT22;35045;51.194;7.268;2023-11-18T14:13:36;6.60;99.90
49218;DHT22;35045;51.194;7.268;2023-11-18T14:16:04;6.60;99.90
49218;DHT22;35045;51.194;7.268;2023-11-18T14:18:30;6.60;99.90
49218;DHT22;35045;51.194;7.268;2023-11-18T14:20:56;6.60;99.90
49218;DHT22;35045;51.194;7.268;2023-11-18T14:23:23;6.60;99.90
49218;DHT22;35045;51.194;7.268;2023-11-18T14:25:49;6.60;99.90
49218;DHT22;35045;51.194;7.268;2023-11-18T14:28:15;6.70;99.90
49218;DHT22;35045;51.194;7.268;2023-11-18T14:30:42;6.60;99.90
49218;DHT22;35045;51.194;7.268;2023-11-18T14:33:08;6.60;99.90
49218;DHT22;35045;51.194;7.268;2023-11-18T14:35:34;6.60;99.90
49218;DHT22;35045;51.194;7.268;2023-11-18T14:38:01;6.50;99.90
49218;DHT22;35045;51.194;7.268;2023-11-18T14:40:27;6.50;99.90
49218;DHT22;35045;51.194;7.268;2023-11-18T14:42:54;6.50;99.90
49218;DHT22;35045;51.194;7.268;2023-11-18T14:45:20;6.50;99.90
49218;DHT22;35045;51.194;7.268;2023-11-18T14:47:47;6.50;99.90
49218;DHT22;35045;51.194;7.268;2023-11-18T14:50:18;6.50;99.90
49218;DHT22;35045;51.194;7.268;2023-11-18T14:52:46;6.60;99.90
49218;DHT22;35045;51.194;7.268;2023-11-18T14:55:13;6.60;99.90
49218;DHT22;35045;51.194;7.268;2023-11-18T14:57:40;6.50;99.90
49218;DHT22;35045;51.194;7.268;2023-11-18T15:00:08;6.50;99.90
49218;DHT22;35045;51.194;7.268;2023-11-18T15:02:35;6.50;99.90
49218;DHT22;35045;51.194;7.268;2023-11-18T15:05:01;6.50;99.90
49218;DHT22;35045;51.194;7.268;2023-11-18T15:07:30;6.50;99.90
49218;DHT22;35045;51.194;7.268;2023-11-18T15:09:57;6.50;99.90
49218;DHT22;35045;51.194;7.268;2023-11-18T15:12:24;6.40;99.90
49218;DHT22;35045;51.194;7.268;2023-11-18T15:14:50;6.50;99.90
49218;DHT22;35045;51.194;7.268;2023-11-18T15:17:16;6.40;99.90
49218;DHT22;35045;51.194;7.268;2023-11-18T15:19:42;6.50;99.90
49218;DHT22;35045;51.194;7.268;2023-11-18T15:22:09;6.40;99.90
49218;DHT22;35045;51.194;7.268;2023-11-18T15:24:36;6.40;99.90
49218;DHT22;35045;51.194;7.268;2023-11-18T15:27:02;6.40;99.90
49218;DHT22;35045;51.194;7.268;2023-11-18T15:29:29;6.40;99.90
49218;DHT22;35045;51.194;7.268;2023-11-18T15:32:04;6.40;99.90
49218;DHT22;35045;51.194;7.268;2023-11-18T15:34:30;6.40;99.90
49218;DHT22;35045;51.194;7.268;2023-11-18T15:36:57;6.40;99.90
49218;DHT22;35045;51.194;7.268;2023-11-18T15:39:26;6.40;99.90
49218;DHT22;35045;51.194;7.268;2023-11-18T15:41:53;6.40;99.90
49218;DHT22;35045;51.194;7.268;2023-11-18T15:44:20;6.40;99.90
49218;DHT22;35045;51.194;7.268;2023-11-18T15:46:49;6.40;99.90
49218;DHT22;35045;51.194;7.268;2023-11-18T15:49:15;6.30;99.90
49218;DHT22;35045;51.194;7.268;2023-11-18T15:51:41;6.40;99.90
49218;DHT22;35045;51.194;7.268;2023-11-18T15:54:08;6.40;99.90
49218;DHT22;35045;51.194;7.268;2023-11-18T15:56:34;6.40;99.90
49218;DHT22;35045;51.194;7.268;2023-11-18T15:59:00;6.40;99.90
49218;DHT22;35045;51.194;7.268;2023-11-18T16:01:27;6.40;99.90
49218;DHT22;35045;51.194;7.268;2023-11-18T16:03:53;6.40;99.90
49218;DHT22;35045;51.194;7.268;2023-11-18T16:06:19;6.40;99.90
49218;DHT22;35045;51.194;7.268;2023-11-18T16:08:45;6.40;99.90
49218;DHT22;35045;51.194;7.268;2023-11-18T16:11:15;6.30;99.90
49218;DHT22;35045;51.194;7.268;2023-11-18T16:13:41;6.30;99.90
49218;DHT22;35045;51.194;7.268;2023-11-18T16:16:07;6.40;99.90